sensor_id;sensor_type;location;lat;lon;timestamp;pressure;altitude;pressure_sealevel;temperature;humidity
2178;BME280;1095;50.992;6.798;2023-03-20T00:02:22;101232.66;;;9.04;100.00
2178;BME280;1095;50.992;6.798;2023-03-20T00:04:49;101237.19;;;9.02;100.00
2178;BME280;1095;50.992;6.798;2023-03-20T00:07:17;101241.19;;;9.06;100.00
2178;BME280;1095;50.992;6.798;2023-03-20T00:09:43;101227.88;;;9.09;100.00
2178;BME280;1095;50.992;6.798;2023-03-20T00:12:13;101227.19;;;9.07;100.00
2178;BME280;1095;50.992;6.798;2023-03-20T00:14:40;101234.00;;;8.98;100.00
2178;BME280;1095;50.992;6.798;2023-03-20T00:17:09;101239.53;;;9.05;100.00
2178;BME280;1095;50.992;6.798;2023-03-20T00:19:36;101236.78;;;9.06;100.00
2178;BME280;1095;50.992;6.798;2023-03-20T00:22:05;101245.28;;;8.98;100.00
2178;BME280;1095;50.992;6.798;2023-03-20T00:24:33;101247.50;;;9.03;100.00
2178;BME280;1095;50.992;6.798;2023-03-20T00:26:59;101242.25;;;8.93;100.00
2178;BME280;1095;50.992;6.798;2023-03-20T00:29:28;101252.03;;;9.01;100.00
2178;BME280;1095;50.992;6.798;2023-03-20T00:31:57;101250.78;;;8.95;100.00
2178;BME280;1095;50.992;6.798;2023-03-20T00:34:25;101256.28;;;8.92;100.00
2178;BME280;1095;50.992;6.798;2023-03-20T00:36:53;101257.91;;;8.93;100.00
2178;BME280;1095;50.992;6.798;2023-03-20T00:39:20;101254.03;;;8.88;100.00
2178;BME280;1095;50.992;6.798;2023-03-20T00:41:50;101260.91;;;8.89;100.00
2178;BME280;1095;50.992;6.798;2023-03-20T00:44:21;101264.09;;;8.92;100.00
2178;BME280;1095;50.992;6.798;2023-03-20T00:46:50;101260.78;;;8.90;100.00
2178;BME280;1095;50.992;6.798;2023-03-20T00:49:19;101262.84;;;8.87;100.00
2178;BME280;1095;50.992;6.798;2023-03-20T00:51:47;101259.25;;;8.88;100.00
2178;BME280;1095;50.992;6.798;2023-03-20T00:54:16;101261.31;;;8.84;100.00
2178;BME280;1095;50.992;6.798;2023-03-20T00:56:45;101258.63;;;8.75;100.00
2178;BME280;1095;50.992;6.798;2023-03-20T00:59:18;101258.06;;;8.71;100.00
2178;BME280;1095;50.992;6.798;2023-03-20T01:01:46;101252.03;;;8.71;100.00
2178;BME280;1095;50.992;6.798;2023-03-20T01:04:14;101255.78;;;8.78;100.00
2178;BME280;1095;50.992;6.798;2023-03-20T01:06:44;101252.34;;;8.77;99.87
2178;BME280;1095;50.992;6.798;2023-03-20T01:09:11;101243.25;;;8.72;99.36
2178;BME280;1095;50.992;6.798;2023-03-20T01:11:38;101243.38;;;8.70;99.38
2178;BME280;1095;50.992;6.798;2023-03-20T01:14:11;101238.16;;;8.70;99.29
2178;BME280;1095;50.992;6.798;2023-03-20T01:16:40;101241.53;;;8.61;99.23
2178;BME280;1095;50.992;6.798;2023-03-20T01:19:12;101238.47;;;8.56;99.28
2178;BME280;1095;50.992;6.798;2023-03-20T01:21:41;101241.63;;;8.50;99.86
2178;BME280;1095;50.992;6.798;2023-03-20T01:24:08;101248.91;;;8.56;99.59
2178;BME280;1095;50.992;6.798;2023-03-20T01:26:37;101255.47;;;8.50;99.75
2178;BME280;1095;50.992;6.798;2023-03-20T01:29:16;101248.63;;;8.49;99.39
2178;BME280;1095;50.992;6.798;2023-03-20T01:31:47;101247.50;;;8.52;99.52
2178;BME280;1095;50.992;6.798;2023-03-20T01:34:14;101238.19;;;8.49;99.48
2178;BME280;1095;50.992;6.798;2023-03-20T01:36:43;101234.19;;;8.55;99.34
2178;BME280;1095;50.992;6.798;2023-03-20T01:39:13;101232.13;;;8.49;99.14
2178;BME280;1095;50.992;6.798;2023-03-20T01:41:42;101226.63;;;8.52;99.51
2178;BME280;1095;50.992;6.798;2023-03-20T01:44:17;101234.28;;;8.44;99.73
2178;BME280;1095;50.992;6.798;2023-03-20T01:46:46;101227.44;;;8.43;100.00
2178;BME280;1095;50.992;6.798;2023-03-20T01:52:21;101226.28;;;8.36;100.00
2178;BME280;1095;50.992;6.798;2023-03-20T01:54:48;101229.84;;;8.35;100.00
2178;BME280;1095;50.992;6.798;2023-03-20T01:57:17;101224.63;;;8.35;100.00
2178;BME280;1095;50.992;6.798;2023-03-20T01:59:47;101232.66;;;8.31;100.00
2178;BME280;1095;50.992;6.798;2023-03-20T02:02:19;101226.31;;;8.24;100.00
2178;BME280;1095;50.992;6.798;2023-03-20T02:04:50;101237.09;;;8.20;100.00
2178;BME280;1095;50.992;6.798;2023-03-20T02:07:19;101223.88;;;8.12;100.00
2178;BME280;1095;50.992;6.798;2023-03-20T02:09:49;101228.84;;;8.15;100.00
2178;BME280;1095;50.992;6.798;2023-03-20T02:12:16;101248.59;;;8.17;100.00
2178;BME280;1095;50.992;6.798;2023-03-20T02:14:44;101249.44;;;8.18;100.00
2178;BME280;1095;50.992;6.798;2023-03-20T02:17:12;101256.88;;;8.22;100.00
2178;BME280;1095;50.992;6.798;2023-03-20T02:19:49;101259.13;;;8.27;100.00
2178;BME280;1095;50.992;6.798;2023-03-20T02:22:40;101258.66;;;8.33;100.00
2178;BME280;1095;50.992;6.798;2023-03-20T02:25:30;101254.34;;;8.32;100.00
2178;BME280;1095;50.992;6.798;2023-03-20T02:31:39;101233.53;;;8.21;100.00
2178;BME280;1095;50.992;6.798;2023-03-20T02:34:58;101234.41;;;8.10;100.00
2178;BME280;1095;50.992;6.798;2023-03-20T02:37:53;101235.69;;;7.95;100.00
2178;BME280;1095;50.992;6.798;2023-03-20T02:40:28;101246.22;;;7.93;100.00
2178;BME280;1095;50.992;6.798;2023-03-20T02:43:02;101253.94;;;7.95;100.00
2178;BME280;1095;50.992;6.798;2023-03-20T02:45:35;101237.34;;;7.96;100.00
2178;BME280;1095;50.992;6.798;2023-03-20T02:48:12;101233.81;;;7.86;100.00
2178;BME280;1095;50.992;6.798;2023-03-20T02:50:45;101233.00;;;7.85;100.00
2178;BME280;1095;50.992;6.798;2023-03-20T02:53:21;101236.41;;;7.86;100.00
2178;BME280;1095;50.992;6.798;2023-03-20T02:55:54;101255.25;;;7.89;100.00
2178;BME280;1095;50.992;6.798;2023-03-20T02:58:26;101254.41;;;7.89;100.00
2178;BME280;1095;50.992;6.798;2023-03-20T03:00:59;101260.56;;;7.88;100.00
2178;BME280;1095;50.992;6.798;2023-03-20T03:03:31;101270.97;;;7.99;100.00
2178;BME280;1095;50.992;6.798;2023-03-20T03:06:04;101264.81;;;8.00;100.00
2178;BME280;1095;50.992;6.798;2023-03-20T03:08:38;101270.03;;;8.00;100.00
2178;BME280;1095;50.992;6.798;2023-03-20T03:11:07;101262.56;;;7.95;100.00
2178;BME280;1095;50.992;6.798;2023-03-20T03:13:37;101259.59;;;8.00;100.00
2178;BME280;1095;50.992;6.798;2023-03-20T03:16:09;101266.00;;;7.96;100.00
2178;BME280;1095;50.992;6.798;2023-03-20T03:18:39;101255.72;;;7.94;100.00
2178;BME280;1095;50.992;6.798;2023-03-20T03:21:09;101267.41;;;8.00;100.00
2178;BME280;1095;50.992;6.798;2023-03-20T03:23:42;101270.84;;;8.01;100.00
2178;BME280;1095;50.992;6.798;2023-03-20T03:26:14;101261.97;;;8.03;100.00
2178;BME280;1095;50.992;6.798;2023-03-20T03:28:45;101258.53;;;8.03;100.00
2178;BME280;1095;50.992;6.798;2023-03-20T03:31:17;101235.56;;;7.96;100.00
2178;BME280;1095;50.992;6.798;2023-03-20T03:33:46;101212.72;;;7.89;100.00
2178;BME280;1095;50.992;6.798;2023-03-20T03:36:21;101208.13;;;7.81;100.00
2178;BME280;1095;50.992;6.798;2023-03-20T03:38:56;101224.13;;;7.77;100.00
2178;BME280;1095;50.992;6.798;2023-03-20T03:41:29;101227.69;;;7.76;100.00
2178;BME280;1095;50.992;6.798;2023-03-20T03:44:04;101246.03;;;7.74;100.00
2178;BME280;1095;50.992;6.798;2023-03-20T03:46:38;101258.81;;;7.77;100.00
2178;BME280;1095;50.992;6.798;2023-03-20T03:49:13;101261.19;;;7.80;100.00
2178;BME280;1095;50.992;6.798;2023-03-20T03:51:43;101258.47;;;7.82;100.00
2178;BME280;1095;50.992;6.798;2023-03-20T03:54:17;101262.13;;;7.90;100.00
2178;BME280;1095;50.992;6.798;2023-03-20T03:56:45;101260.13;;;7.83;100.00
2178;BME280;1095;50.992;6.798;2023-03-20T03:59:16;101273.63;;;7.77;100.00
2178;BME280;1095;50.992;6.798;2023-03-20T04:01:45;101281.69;;;7.74;100.00
2178;BME280;1095;50.992;6.798;2023-03-20T04:04:16;101274.00;;;7.72;100.00
2178;BME280;1095;50.992;6.798;2023-03-20T04:06:45;101261.56;;;7.64;100.00
2178;BME280;1095;50.992;6.798;2023-03-20T04:09:11;101265.47;;;7.70;100.00
2178;BME280;1095;50.992;6.798;2023-03-20T04:11:39;101257.19;;;7.65;100.00
2178;BME280;1095;50.992;6.798;2023-03-20T04:14:06;101258.03;;;7.65;100.00
2178;BME280;1095;50.992;6.798;2023-03-20T04:16:33;101267.38;;;7.68;100.00
2178;BME280;1095;50.992;6.798;2023-03-20T04:19:00;101262.75;;;7.60;100.00
2178;BME280;1095;50.992;6.798;2023-03-20T04:21:26;101256.84;;;7.58;100.00
2178;BME280;1095;50.992;6.798;2023-03-20T04:23:53;101268.22;;;7.57;100.00
2178;BME280;1095;50.992;6.798;2023-03-20T04:26:20;101255.34;;;7.56;100.00
2178;BME280;1095;50.992;6.798;2023-03-20T04:28:48;101256.88;;;7.47;100.00
2178;BME280;1095;50.992;6.798;2023-03-20T04:31:14;101262.69;;;7.40;100.00
2178;BME280;1095;50.992;6.798;2023-03-20T04:33:41;101256.66;;;7.39;100.00
2178;BME280;1095;50.992;6.798;2023-03-20T04:36:08;101253.00;;;7.30;100.00
2178;BME280;1095;50.992;6.798;2023-03-20T04:38:35;101244.00;;;7.23;100.00
2178;BME280;1095;50.992;6.798;2023-03-20T04:41:02;101253.00;;;7.19;100.00
2178;BME280;1095;50.992;6.798;2023-03-20T04:43:29;101247.66;;;7.21;100.00
2178;BME280;1095;50.992;6.798;2023-03-20T04:45:57;101242.69;;;7.18;100.00
2178;BME280;1095;50.992;6.798;2023-03-20T04:48:24;101233.13;;;7.18;100.00
2178;BME280;1095;50.992;6.798;2023-03-20T04:50:52;101245.06;;;7.10;100.00
2178;BME280;1095;50.992;6.798;2023-03-20T04:53:19;101244.72;;;7.14;100.00
2178;BME280;1095;50.992;6.798;2023-03-20T04:55:45;101246.16;;;7.07;100.00
2178;BME280;1095;50.992;6.798;2023-03-20T04:58:12;101254.78;;;7.08;100.00
2178;BME280;1095;50.992;6.798;2023-03-20T05:00:39;101261.88;;;7.06;100.00
2178;BME280;1095;50.992;6.798;2023-03-20T05:03:07;101249.13;;;7.03;100.00
2178;BME280;1095;50.992;6.798;2023-03-20T05:05:33;101255.72;;;6.95;100.00
2178;BME280;1095;50.992;6.798;2023-03-20T05:08:02;101247.56;;;6.89;100.00
2178;BME280;1095;50.992;6.798;2023-03-20T05:10:29;101245.06;;;6.87;100.00
2178;BME280;1095;50.992;6.798;2023-03-20T05:12:56;101244.38;;;6.85;100.00
2178;BME280;1095;50.992;6.798;2023-03-20T05:15:23;101247.69;;;6.87;100.00
2178;BME280;1095;50.992;6.798;2023-03-20T05:17:49;101246.97;;;6.85;100.00
2178;BME280;1095;50.992;6.798;2023-03-20T05:20:17;101252.63;;;6.79;100.00
2178;BME280;1095;50.992;6.798;2023-03-20T05:22:47;101248.50;;;6.77;100.00
2178;BME280;1095;50.992;6.798;2023-03-20T05:25:14;101242.47;;;6.76;100.00
2178;BME280;1095;50.992;6.798;2023-03-20T05:27:41;101245.06;;;6.87;100.00
2178;BME280;1095;50.992;6.798;2023-03-20T05:30:10;101245.06;;;6.87;100.00
2178;BME280;1095;50.992;6.798;2023-03-20T05:32:37;101243.41;;;6.86;100.00
2178;BME280;1095;50.992;6.798;2023-03-20T05:35:05;101236.91;;;6.81;100.00
2178;BME280;1095;50.992;6.798;2023-03-20T05:37:34;101231.59;;;6.82;100.00
2178;BME280;1095;50.992;6.798;2023-03-20T05:40:01;101239.41;;;6.82;100.00
2178;BME280;1095;50.992;6.798;2023-03-20T05:42:33;101242.69;;;6.73;100.00
2178;BME280;1095;50.992;6.798;2023-03-20T05:44:59;101246.72;;;6.77;100.00
2178;BME280;1095;50.992;6.798;2023-03-20T05:47:26;101246.97;;;6.85;100.00
2178;BME280;1095;50.992;6.798;2023-03-20T05:49:52;101250.97;;;6.78;100.00
2178;BME280;1095;50.992;6.798;2023-03-20T05:52:19;101254.53;;;6.77;100.00
2178;BME280;1095;50.992;6.798;2023-03-20T05:54:47;101250.03;;;6.79;100.00
2178;BME280;1095;50.992;6.798;2023-03-20T05:57:14;101240.19;;;6.72;100.00
2178;BME280;1095;50.992;6.798;2023-03-20T05:59:41;101251.09;;;6.77;100.00
2178;BME280;1095;50.992;6.798;2023-03-20T06:02:08;101256.78;;;6.82;100.00
2178;BME280;1095;50.992;6.798;2023-03-20T06:04:34;101260.19;;;6.82;100.00
2178;BME280;1095;50.992;6.798;2023-03-20T06:07:02;101261.59;;;6.75;100.00
2178;BME280;1095;50.992;6.798;2023-03-20T06:09:29;101268.13;;;6.81;100.00
2178;BME280;1095;50.992;6.798;2023-03-20T06:11:57;101266.34;;;6.81;100.00
2178;BME280;1095;50.992;6.798;2023-03-20T06:14:24;101255.38;;;6.89;100.00
2178;BME280;1095;50.992;6.798;2023-03-20T06:16:50;101248.63;;;6.86;100.00
2178;BME280;1095;50.992;6.798;2023-03-20T06:19:18;101257.13;;;6.88;100.00
2178;BME280;1095;50.992;6.798;2023-03-20T06:21:46;101255.25;;;6.90;100.00
2178;BME280;1095;50.992;6.798;2023-03-20T06:24:13;101265.66;;;7.02;100.00
2178;BME280;1095;50.992;6.798;2023-03-20T06:26:39;101263.63;;;7.16;100.00
2178;BME280;1095;50.992;6.798;2023-03-20T06:29:07;101261.16;;;7.15;100.00
2178;BME280;1095;50.992;6.798;2023-03-20T06:31:34;101249.22;;;7.23;100.00
2178;BME280;1095;50.992;6.798;2023-03-20T06:34:00;101251.69;;;7.36;100.00
2178;BME280;1095;50.992;6.798;2023-03-20T06:36:28;101253.56;;;7.45;100.00
2178;BME280;1095;50.992;6.798;2023-03-20T06:38:55;101248.31;;;7.56;100.00
2178;BME280;1095;50.992;6.798;2023-03-20T06:41:21;101242.81;;;7.82;100.00
2178;BME280;1095;50.992;6.798;2023-03-20T06:43:48;101248.72;;;7.95;100.00
2178;BME280;1095;50.992;6.798;2023-03-20T06:46:16;101243.97;;;8.00;100.00
2178;BME280;1095;50.992;6.798;2023-03-20T06:48:42;101247.44;;;7.89;100.00
2178;BME280;1095;50.992;6.798;2023-03-20T06:51:09;101252.31;;;7.83;100.00
2178;BME280;1095;50.992;6.798;2023-03-20T06:53:36;101246.88;;;7.75;100.00
2178;BME280;1095;50.992;6.798;2023-03-20T06:56:04;101247.09;;;7.83;100.00
2178;BME280;1095;50.992;6.798;2023-03-20T06:58:31;101255.84;;;7.82;99.80
2178;BME280;1095;50.992;6.798;2023-03-20T07:00:57;101270.78;;;7.80;99.57
2178;BME280;1095;50.992;6.798;2023-03-20T07:03:25;101252.19;;;7.84;99.16
2178;BME280;1095;50.992;6.798;2023-03-20T07:05:52;101272.63;;;8.00;99.36
2178;BME280;1095;50.992;6.798;2023-03-20T07:08:19;101275.94;;;8.02;98.83
2178;BME280;1095;50.992;6.798;2023-03-20T07:10:45;101282.88;;;8.13;98.34
2178;BME280;1095;50.992;6.798;2023-03-20T07:13:12;101288.16;;;8.22;98.25
2178;BME280;1095;50.992;6.798;2023-03-20T07:15:39;101293.47;;;8.32;97.69
2178;BME280;1095;50.992;6.798;2023-03-20T07:18:05;101294.31;;;8.32;96.78
2178;BME280;1095;50.992;6.798;2023-03-20T07:20:34;101298.66;;;8.43;96.75
2178;BME280;1095;50.992;6.798;2023-03-20T07:23:00;101298.72;;;8.21;96.18
2178;BME280;1095;50.992;6.798;2023-03-20T07:25:27;101301.13;;;8.13;96.57
2178;BME280;1095;50.992;6.798;2023-03-20T07:27:54;101310.06;;;8.31;96.14
2178;BME280;1095;50.992;6.798;2023-03-20T07:30:20;101311.41;;;8.14;96.08
2178;BME280;1095;50.992;6.798;2023-03-20T07:32:47;101313.06;;;8.15;96.16
2178;BME280;1095;50.992;6.798;2023-03-20T07:35:14;101310.22;;;8.18;95.95
2178;BME280;1095;50.992;6.798;2023-03-20T07:37:42;101311.50;;;8.24;95.94
2178;BME280;1095;50.992;6.798;2023-03-20T07:40:09;101310.22;;;8.18;95.76
2178;BME280;1095;50.992;6.798;2023-03-20T07:42:36;101315.91;;;8.23;95.61
2178;BME280;1095;50.992;6.798;2023-03-20T07:45:04;101318.00;;;8.29;95.01
2178;BME280;1095;50.992;6.798;2023-03-20T07:47:35;101323.47;;;8.38;94.99
2178;BME280;1095;50.992;6.798;2023-03-20T07:50:05;101326.41;;;8.44;94.70
2178;BME280;1095;50.992;6.798;2023-03-20T07:52:32;101323.91;;;8.63;94.55
2178;BME280;1095;50.992;6.798;2023-03-20T07:55:00;101337.16;;;8.72;93.46
2178;BME280;1095;50.992;6.798;2023-03-20T07:57:27;101336.16;;;8.84;93.27
2178;BME280;1095;50.992;6.798;2023-03-20T07:59:56;101332.53;;;8.75;92.44
2178;BME280;1095;50.992;6.798;2023-03-20T08:02:30;101343.09;;;8.94;92.37
2178;BME280;1095;50.992;6.798;2023-03-20T08:04:59;101325.66;;;8.95;91.77
2178;BME280;1095;50.992;6.798;2023-03-20T08:07:30;101342.31;;;9.04;91.17
2178;BME280;1095;50.992;6.798;2023-03-20T08:09:56;101343.69;;;9.08;90.61
2178;BME280;1095;50.992;6.798;2023-03-20T08:12:24;101347.72;;;9.12;90.32
2178;BME280;1095;50.992;6.798;2023-03-20T08:14:51;101343.38;;;9.01;89.57
2178;BME280;1095;50.992;6.798;2023-03-20T08:17:18;101342.31;;;9.04;89.34
2178;BME280;1095;50.992;6.798;2023-03-20T08:19:44;101352.50;;;9.07;89.14
2178;BME280;1095;50.992;6.798;2023-03-20T08:22:11;101351.63;;;8.96;89.01
2178;BME280;1095;50.992;6.798;2023-03-20T08:24:38;101346.56;;;9.05;88.97
2178;BME280;1095;50.992;6.798;2023-03-20T08:27:05;101347.66;;;9.23;88.74
2178;BME280;1095;50.992;6.798;2023-03-20T08:29:33;101345.88;;;9.03;87.77
2178;BME280;1095;50.992;6.798;2023-03-20T08:32:00;101342.69;;;9.20;87.81
2178;BME280;1095;50.992;6.798;2023-03-20T08:34:27;101338.75;;;9.05;87.71
2178;BME280;1095;50.992;6.798;2023-03-20T08:36:53;101345.88;;;9.03;88.01
2178;BME280;1095;50.992;6.798;2023-03-20T08:39:20;101338.16;;;9.01;87.32
2178;BME280;1095;50.992;6.798;2023-03-20T08:41:46;101343.19;;;9.14;86.82
2178;BME280;1095;50.992;6.798;2023-03-20T08:44:13;101346.19;;;9.09;86.63
2178;BME280;1095;50.992;6.798;2023-03-20T08:46:41;101348.66;;;9.31;86.38
2178;BME280;1095;50.992;6.798;2023-03-20T08:49:10;101346.09;;;9.51;86.44
2178;BME280;1095;50.992;6.798;2023-03-20T08:51:37;101335.47;;;9.73;85.55
2178;BME280;1095;50.992;6.798;2023-03-20T08:54:04;101330.06;;;9.65;84.06
2178;BME280;1095;50.992;6.798;2023-03-20T08:56:31;101326.66;;;9.74;83.93
2178;BME280;1095;50.992;6.798;2023-03-20T08:58:58;101325.31;;;9.99;84.23
2178;BME280;1095;50.992;6.798;2023-03-20T09:01:24;101335.53;;;10.02;83.77
2178;BME280;1095;50.992;6.798;2023-03-20T09:03:52;101330.28;;;9.92;83.08
2178;BME280;1095;50.992;6.798;2023-03-20T09:06:19;101330.53;;;9.80;83.04
2178;BME280;1095;50.992;6.798;2023-03-20T09:08:45;101325.31;;;9.80;82.97
2178;BME280;1095;50.992;6.798;2023-03-20T09:11:12;101339.16;;;9.71;82.43
2178;BME280;1095;50.992;6.798;2023-03-20T09:13:38;101334.53;;;9.84;82.93
2178;BME280;1095;50.992;6.798;2023-03-20T09:16:06;101341.28;;;9.96;82.69
2178;BME280;1095;50.992;6.798;2023-03-20T09:18:33;101350.91;;;9.86;82.99
2178;BME280;1095;50.992;6.798;2023-03-20T09:21:01;101330.84;;;9.86;82.54
2178;BME280;1095;50.992;6.798;2023-03-20T09:23:28;101340.44;;;9.76;82.67
2178;BME280;1095;50.992;6.798;2023-03-20T09:25:54;101343.88;;;9.77;82.90
2178;BME280;1095;50.992;6.798;2023-03-20T09:28:21;101349.03;;;9.57;83.25
2178;BME280;1095;50.992;6.798;2023-03-20T09:30:48;101336.16;;;9.75;83.51
2178;BME280;1095;50.992;6.798;2023-03-20T09:33:14;101332.84;;;9.73;82.83
2178;BME280;1095;50.992;6.798;2023-03-20T09:35:42;101342.31;;;9.64;83.11
2178;BME280;1095;50.992;6.798;2023-03-20T09:38:12;101339.94;;;9.92;82.84
2178;BME280;1095;50.992;6.798;2023-03-20T09:40:48;101340.22;;;10.08;82.56
2178;BME280;1095;50.992;6.798;2023-03-20T09:43:21;101329.47;;;10.11;81.81
2178;BME280;1095;50.992;6.798;2023-03-20T09:46:01;101334.69;;;9.92;81.56
2178;BME280;1095;50.992;6.798;2023-03-20T09:48:37;101331.94;;;10.03;81.89
2178;BME280;1095;50.992;6.798;2023-03-20T09:51:15;101327.81;;;10.01;82.04
2178;BME280;1095;50.992;6.798;2023-03-20T09:53:50;101326.84;;;10.02;81.34
2178;BME280;1095;50.992;6.798;2023-03-20T09:56:20;101322.16;;;9.86;79.69
2178;BME280;1095;50.992;6.798;2023-03-20T09:58:53;101312.78;;;9.74;77.19
2178;BME280;1095;50.992;6.798;2023-03-20T10:01:23;101316.66;;;9.98;77.40
2178;BME280;1095;50.992;6.798;2023-03-20T10:03:57;101318.25;;;10.20;76.18
2178;BME280;1095;50.992;6.798;2023-03-20T10:06:24;101314.81;;;10.29;74.67
2178;BME280;1095;50.992;6.798;2023-03-20T10:08:52;101315.34;;;10.43;74.20
2178;BME280;1095;50.992;6.798;2023-03-20T10:11:35;101325.66;;;10.63;74.62
2178;BME280;1095;50.992;6.798;2023-03-20T10:14:15;101310.94;;;10.53;73.80
2178;BME280;1095;50.992;6.798;2023-03-20T10:16:58;101304.72;;;10.54;72.83
2178;BME280;1095;50.992;6.798;2023-03-20T10:19:30;101309.03;;;10.36;73.74
2178;BME280;1095;50.992;6.798;2023-03-20T10:22:01;101320.03;;;10.29;74.20
2178;BME280;1095;50.992;6.798;2023-03-20T10:24:34;101326.22;;;10.28;74.23
2178;BME280;1095;50.992;6.798;2023-03-20T10:27:05;101324.63;;;9.78;75.05
2178;BME280;1095;50.992;6.798;2023-03-20T10:29:46;101328.78;;;9.90;74.88
2178;BME280;1095;50.992;6.798;2023-03-20T10:32:21;101330.28;;;9.83;75.11
2178;BME280;1095;50.992;6.798;2023-03-20T10:35:00;101322.84;;;9.88;75.14
2178;BME280;1095;50.992;6.798;2023-03-20T10:37:38;101316.41;;;10.11;75.27
2178;BME280;1095;50.992;6.798;2023-03-20T10:40:27;101317.34;;;10.01;75.25
2178;BME280;1095;50.992;6.798;2023-03-20T10:42:57;101318.97;;;9.73;75.38
2178;BME280;1095;50.992;6.798;2023-03-20T10:45:32;101315.72;;;9.90;75.40
2178;BME280;1095;50.992;6.798;2023-03-20T10:48:04;101301.91;;;9.78;74.02
2178;BME280;1095;50.992;6.798;2023-03-20T10:50:35;101306.63;;;9.84;74.49
2178;BME280;1095;50.992;6.798;2023-03-20T10:53:04;101314.31;;;9.95;74.39
2178;BME280;1095;50.992;6.798;2023-03-20T10:55:36;101317.22;;;10.02;74.23
2178;BME280;1095;50.992;6.798;2023-03-20T10:58:11;101318.47;;;10.08;75.13
2178;BME280;1095;50.992;6.798;2023-03-20T11:00:41;101306.59;;;9.94;74.94
2178;BME280;1095;50.992;6.798;2023-03-20T11:03:19;101306.88;;;9.81;74.69
2178;BME280;1095;50.992;6.798;2023-03-20T11:05:52;101310.06;;;9.85;75.12
2178;BME280;1095;50.992;6.798;2023-03-20T11:08:21;101311.91;;;9.63;75.90
2178;BME280;1095;50.992;6.798;2023-03-20T11:10:57;101310.34;;;9.51;75.97
2178;BME280;1095;50.992;6.798;2023-03-20T11:13:26;101307.53;;;9.74;76.85
2178;BME280;1095;50.992;6.798;2023-03-20T11:15:54;101312.34;;;9.69;77.29
2178;BME280;1095;50.992;6.798;2023-03-20T11:18:25;101296.69;;;9.97;77.29
2178;BME280;1095;50.992;6.798;2023-03-20T11:20:57;101293.66;;;9.92;76.37
2178;BME280;1095;50.992;6.798;2023-03-20T11:23:25;101296.41;;;9.72;76.09
2178;BME280;1095;50.992;6.798;2023-03-20T11:25:57;101299.69;;;9.64;76.48
2178;BME280;1095;50.992;6.798;2023-03-20T11:28:30;101303.75;;;9.47;77.08
2178;BME280;1095;50.992;6.798;2023-03-20T11:30:59;101294.47;;;9.74;77.46
2178;BME280;1095;50.992;6.798;2023-03-20T11:33:27;101297.94;;;9.84;77.82
2178;BME280;1095;50.992;6.798;2023-03-20T11:35:56;101297.81;;;9.85;80.29
2178;BME280;1095;50.992;6.798;2023-03-20T11:38:23;101295.59;;;9.81;81.75
2178;BME280;1095;50.992;6.798;2023-03-20T11:40:51;101298.59;;;9.67;82.24
2178;BME280;1095;50.992;6.798;2023-03-20T11:43:21;101293.66;;;9.73;83.33
2178;BME280;1095;50.992;6.798;2023-03-20T11:45:49;101304.28;;;9.91;83.35
2178;BME280;1095;50.992;6.798;2023-03-20T11:48:21;101296.03;;;10.05;84.63
2178;BME280;1095;50.992;6.798;2023-03-20T11:50:58;101293.69;;;10.02;83.94
2178;BME280;1095;50.992;6.798;2023-03-20T11:54:12;101281.56;;;9.82;83.75
2178;BME280;1095;50.992;6.798;2023-03-20T11:56:39;101282.94;;;9.86;83.25
2178;BME280;1095;50.992;6.798;2023-03-20T12:01:47;101271.41;;;9.88;82.16
2178;BME280;1095;50.992;6.798;2023-03-20T12:04:35;101264.06;;;9.73;82.51
2178;BME280;1095;50.992;6.798;2023-03-20T12:07:11;101274.78;;;9.70;83.07
2178;BME280;1095;50.992;6.798;2023-03-20T12:09:42;101276.28;;;9.62;82.89
2178;BME280;1095;50.992;6.798;2023-03-20T12:12:17;101273.88;;;9.80;83.00
2178;BME280;1095;50.992;6.798;2023-03-20T12:14:53;101280.75;;;9.91;83.48
2178;BME280;1095;50.992;6.798;2023-03-20T12:17:54;101243.59;;;9.87;82.11
2178;BME280;1095;50.992;6.798;2023-03-20T12:20:39;101266.94;;;9.60;83.10
2178;BME280;1095;50.992;6.798;2023-03-20T12:23:12;101274.91;;;9.58;83.67
2178;BME280;1095;50.992;6.798;2023-03-20T12:25:46;101276.81;;;9.56;84.28
2178;BME280;1095;50.992;6.798;2023-03-20T12:28:19;101264.03;;;9.53;84.09
2178;BME280;1095;50.992;6.798;2023-03-20T12:31:00;101265.13;;;9.41;83.25
2178;BME280;1095;50.992;6.798;2023-03-20T12:33:43;101260.75;;;9.61;82.72
2178;BME280;1095;50.992;6.798;2023-03-20T12:36:15;101244.66;;;9.65;82.06
2178;BME280;1095;50.992;6.798;2023-03-20T12:38:43;101252.69;;;9.83;82.05
2178;BME280;1095;50.992;6.798;2023-03-20T12:41:13;101255.44;;;10.01;81.84
2178;BME280;1095;50.992;6.798;2023-03-20T12:44:12;101241.97;;;10.25;81.16
2178;BME280;1095;50.992;6.798;2023-03-20T12:46:43;101241.97;;;10.35;80.67
2178;BME280;1095;50.992;6.798;2023-03-20T12:49:41;101244.72;;;10.33;80.58
2178;BME280;1095;50.992;6.798;2023-03-20T12:52:21;101226.84;;;10.85;79.38
2178;BME280;1095;50.992;6.798;2023-03-20T12:55:08;101233.78;;;10.57;78.44
2178;BME280;1095;50.992;6.798;2023-03-20T12:57:42;101227.31;;;10.61;79.09
2178;BME280;1095;50.992;6.798;2023-03-20T13:00:21;101224.28;;;10.66;78.63
2178;BME280;1095;50.992;6.798;2023-03-20T13:02:57;101221.16;;;10.89;78.38
2178;BME280;1095;50.992;6.798;2023-03-20T13:05:35;101214.53;;;11.22;77.36
2178;BME280;1095;50.992;6.798;2023-03-20T13:08:19;101210.16;;;10.86;76.96
2178;BME280;1095;50.992;6.798;2023-03-20T13:10:56;101213.56;;;10.49;77.77
2178;BME280;1095;50.992;6.798;2023-03-20T13:13:32;101220.94;;;10.73;78.33
2178;BME280;1095;50.992;6.798;2023-03-20T13:16:11;101207.16;;;10.81;77.75
2178;BME280;1095;50.992;6.798;2023-03-20T13:18:50;101215.19;;;10.60;77.96
2178;BME280;1095;50.992;6.798;2023-03-20T13:21:26;101214.47;;;10.77;78.68
2178;BME280;1095;50.992;6.798;2023-03-20T13:24:03;101209.00;;;10.98;78.28
2178;BME280;1095;50.992;6.798;2023-03-20T13:26:34;101200.81;;;11.11;77.45
2178;BME280;1095;50.992;6.798;2023-03-20T13:29:07;101196.25;;;11.13;78.19
2178;BME280;1095;50.992;6.798;2023-03-20T13:31:48;101192.38;;;11.17;77.32
2178;BME280;1095;50.992;6.798;2023-03-20T13:34:33;101188.84;;;11.53;76.57
2178;BME280;1095;50.992;6.798;2023-03-20T13:37:12;101184.09;;;11.39;76.45
2178;BME280;1095;50.992;6.798;2023-03-20T13:39:46;101180.19;;;11.25;76.32
2178;BME280;1095;50.992;6.798;2023-03-20T13:42:16;101186.16;;;10.90;76.44
2178;BME280;1095;50.992;6.798;2023-03-20T13:44:44;101193.53;;;11.05;76.58